Time;durP1;ratioP1;P1;durP2;ratioP2;P2;SDS_P1;SDS_P2;PMS_P1;PMS_P2;Temp;Humidity;BMP_temperature;BMP_pressure;BME280_temperature;BME280_humidity;BME280_pressure;Samples;Min_cycle;Max_cycle;Signal;HPM_P1;HPM_P2
2022/09/04 00:03:00;;;;;;;70.88;61.58;;;19.80;84.60;;;;;;4982153;28;20489;-75
2022/09/04 00:05:35;;;;;;;70.40;62.67;;;19.70;84.70;;;;;;5012049;28;20388;-76
2022/09/04 00:08:25;;;;;;;70.35;62.35;;;19.60;84.90;;;;;;4992795;28;20830;-76
2022/09/04 00:11:10;;;;;;;69.25;61.25;;;19.60;85.10;;;;;;4984006;28;20406;-75
2022/09/04 00:14:02;;;;;;;70.43;62.63;;;19.60;85.30;;;;;;5006061;28;20503;-76
2022/09/04 00:16:32;;;;;;;66.75;59.05;;;19.60;85.30;;;;;;4991583;28;20053;-76
2022/09/04 00:19:05;;;;;;;64.82;55.72;;;19.50;85.30;;;;;;5002260;28;20041;-76
2022/09/04 00:21:43;;;;;;;65.57;58.40;;;19.50;85.30;;;;;;5000431;28;20169;-76
2022/09/04 00:24:17;;;;;;;66.13;58.83;;;19.50;85.10;;;;;;5002940;28;20079;-77
2022/09/04 00:26:56;;;;;;;66.25;58.40;;;19.50;84.70;;;;;;5004364;28;20041;-75
2022/09/04 00:29:52;;;;;;;67.55;60.05;;;19.50;84.80;;;;;;5002563;28;20435;-76
2022/09/04 00:32:43;;;;;;;70.85;60.67;;;19.40;84.70;;;;;;5009252;28;20461;-76
2022/09/04 00:35:25;;;;;;;69.00;60.90;;;19.30;85.10;;;;;;4993454;28;20180;-76
2022/09/04 00:38:13;;;;;;;66.32;59.10;;;19.40;85.20;;;;;;4996717;28;20083;-76
2022/09/04 00:40:46;;;;;;;66.85;58.40;;;19.30;85.20;;;;;;5007292;28;20041;-76
2022/09/04 00:43:39;;;;;;;65.45;56.30;;;19.30;85.20;;;;;;5000415;28;20037;-75
2022/09/04 00:46:43;;;;;;;65.25;56.03;;;19.30;85.30;;;;;;5003100;28;20038;-76
2022/09/04 00:49:49;;;;;;;69.90;61.33;;;19.20;85.10;;;;;;5005310;28;20042;-75
2022/09/04 00:53:01;;;;;;;74.20;63.08;;;19.20;85.20;;;;;;5027669;28;20031;-76
2022/09/04 00:55:38;;;;;;;76.07;66.28;;;19.20;85.30;;;;;;5007043;28;20453;-76
2022/09/04 00:58:32;;;;;;;75.05;66.28;;;19.10;85.50;;;;;;5008446;28;20034;-75
2022/09/04 01:00:59;;;;;;;77.47;65.47;;;19.10;85.80;;;;;;5011107;28;20049;-76
2022/09/04 01:04:09;;;;;;;79.75;66.95;;;19.10;86.00;;;;;;5012629;28;20739;-78
2022/09/04 01:06:52;;;;;;;79.03;65.90;;;19.10;86.20;;;;;;5003359;28;20037;-76
2022/09/04 01:09:30;;;;;;;69.45;61.80;;;19.00;86.30;;;;;;5003176;28;20034;-76
2022/09/04 01:12:07;;;;;;;73.07;63.03;;;19.00;86.40;;;;;;5009329;28;20065;-76
2022/09/04 01:15:13;;;;;;;73.72;64.72;;;19.00;86.10;;;;;;5004511;28;20045;-76
2022/09/04 01:18:13;;;;;;;75.40;64.65;;;18.90;85.80;;;;;;4991764;28;20069;-76
2022/09/04 01:21:09;;;;;;;69.60;59.70;;;18.90;86.10;;;;;;5006815;28;20396;-76
2022/09/04 01:23:49;;;;;;;72.53;63.35;;;18.90;86.10;;;;;;4995070;28;20084;-76
2022/09/04 01:26:36;;;;;;;75.93;65.10;;;18.80;86.20;;;;;;4995181;28;20038;-76
2022/09/04 01:29:21;;;;;;;72.85;64.82;;;18.80;86.30;;;;;;5002954;28;20033;-76
2022/09/04 01:31:56;;;;;;;;;;;18.80;86.30;;;;;;5006023;28;20363;-76
2022/09/04 01:34:44;;;;;;;71.97;61.00;;;18.70;86.20;;;;;;4992506;28;19925;-76
2022/09/04 01:37:26;;;;;;;79.45;68.70;;;18.70;86.10;;;;;;4999281;28;20029;-77
2022/09/04 01:40:39;;;;;;;71.93;62.47;;;18.70;86.10;;;;;;4998801;28;20042;-78
2022/09/04 01:43:11;;;;;;;72.03;61.63;;;18.70;86.10;;;;;;4998128;28;20040;-75
2022/09/04 01:46:00;;;;;;;70.15;61.40;;;18.70;86.20;;;;;;5006090;28;20065;-75
2022/09/04 01:48:36;;;;;;;74.97;64.05;;;18.70;86.30;;;;;;5005119;28;20056;-78
2022/09/04 01:51:11;;;;;;;74.18;63.90;;;18.70;86.40;;;;;;5007823;28;20034;-76
2022/09/04 01:53:42;;;;;;;74.97;63.53;;;18.60;86.50;;;;;;5007990;28;20092;-76
2022/09/04 01:56:31;;;;;;;81.75;68.60;;;18.60;86.40;;;;;;5015624;28;20056;-76
2022/09/04 01:59:36;;;;;;;73.32;63.08;;;18.60;86.30;;;;;;5010030;28;20179;-76
2022/09/04 02:02:29;;;;;;;71.25;61.40;;;18.60;86.40;;;;;;5014743;28;20065;-77
2022/09/04 02:05:17;;;;;;;70.75;60.33;;;18.50;86.40;;;;;;5022330;28;20441;-78
2022/09/04 02:07:58;;;;;;;76.95;64.30;;;18.50;86.40;;;;;;5015130;28;20033;-76
2022/09/04 02:10:42;;;;;;;66.35;58.72;;;18.50;86.30;;;;;;5014323;28;20040;-76
2022/09/04 02:13:35;;;;;;;69.13;60.13;;;18.40;86.50;;;;;;5002283;28;20400;-78
2022/09/04 02:16:09;;;;;;;62.20;55.40;;;18.40;86.40;;;;;;5009788;28;20037;-78
2022/09/04 02:19:16;;;;;;;68.68;58.75;;;18.30;86.30;;;;;;5009377;28;20041;-76
2022/09/04 02:22:19;;;;;;;65.28;56.63;;;18.30;86.30;;;;;;5006464;28;20532;-76
2022/09/04 02:24:48;;;;;;;66.68;58.45;;;18.30;86.40;;;;;;5008754;28;20524;-77
2022/09/04 02:27:34;;;;;;;65.78;58.03;;;18.20;86.50;;;;;;5011712;28;20473;-76
2022/09/04 02:30:06;;;;;;;67.85;59.38;;;18.30;86.50;;;;;;5003701;28;20039;-76
2022/09/04 02:33:04;;;;;;;64.70;56.45;;;18.20;86.20;;;;;;4997316;28;20064;-76
2022/09/04 02:35:55;;;;;;;66.78;58.85;;;18.20;86.20;;;;;;5013239;28;20045;-76
2022/09/04 02:38:31;;;;;;;70.70;60.72;;;18.20;86.10;;;;;;5005873;28;20034;-76
2022/09/04 02:41:19;;;;;;;66.22;58.53;;;18.20;86.30;;;;;;5012495;28;20026;-76
2022/09/04 02:44:06;;;;;;;69.63;59.40;;;18.20;86.50;;;;;;5002942;28;20068;-76
2022/09/04 02:46:53;;;;;;;66.38;59.08;;;18.20;86.50;;;;;;5012461;28;20080;-76
2022/09/04 02:49:56;;;;;;;68.63;58.28;;;18.20;86.40;;;;;;5008454;28;20045;-77
2022/09/04 02:53:00;;;;;;;71.47;60.13;;;18.10;86.20;;;;;;5018260;28;20042;-77
2022/09/04 02:55:43;;;;;;;74.60;63.40;;;18.10;86.40;;;;;;5010338;28;20030;-77
2022/09/04 02:58:22;;;;;;;74.80;63.47;;;18.10;86.60;;;;;;5022149;28;20034;-77
2022/09/04 03:00:53;;;;;;;75.38;63.75;;;18.10;86.80;;;;;;5017560;28;20163;-76
2022/09/04 03:03:41;;;;;;;74.55;61.65;;;18.10;86.90;;;;;;5001641;28;20519;-76
2022/09/04 03:06:31;;;;;;;73.25;61.88;;;18.10;87.20;;;;;;5022790;28;20030;-76
2022/09/04 03:09:07;;;;;;;75.75;62.72;;;18.10;87.30;;;;;;5010242;28;20454;-76
2022/09/04 03:11:42;;;;;;;75.07;63.30;;;18.10;87.50;;;;;;5006737;28;20116;-76
2022/09/04 03:14:33;;;;;;;79.78;66.95;;;18.10;87.50;;;;;;5013108;28;20243;-76
2022/09/04 03:17:22;;;;;;;73.80;62.60;;;18.10;87.70;;;;;;5002343;28;20117;-76
2022/09/04 03:20:17;;;;;;;71.57;61.38;;;18.10;87.90;;;;;;5002453;28;20045;-76
2022/09/04 03:22:51;;;;;;;81.05;64.30;;;18.10;87.90;;;;;;5009346;28;20044;-76
2022/09/04 03:25:25;;;;;;;71.18;60.55;;;18.10;87.90;;;;;;5008504;28;20034;-76
2022/09/04 03:27:51;;;;;;;76.88;65.82;;;18.10;87.90;;;;;;5002319;28;20536;-77
2022/09/04 03:30:17;;;;;;;77.65;65.82;;;18.00;87.80;;;;;;5008384;28;20037;-75
2022/09/04 03:33:02;;;;;;;77.25;64.63;;;18.00;87.70;;;;;;5006765;28;20030;-75
2022/09/04 03:36:06;;;;;;;78.40;65.60;;;18.00;87.70;;;;;;5001312;28;20037;-76
2022/09/04 03:38:56;;;;;;;75.13;62.50;;;18.00;87.90;;;;;;5004222;28;20131;-75
2022/09/04 03:41:39;;;;;;;74.70;63.35;;;17.90;88.00;;;;;;4994216;28;20034;-78
2022/09/04 03:44:17;;;;;;;82.35;68.82;;;17.90;88.10;;;;;;5003946;28;20049;-75
2022/09/04 03:47:27;;;;;;;72.65;62.08;;;17.80;88.20;;;;;;5011100;28;20053;-75
2022/09/04 03:50:02;;;;;;;70.13;62.17;;;17.80;88.20;;;;;;5005400;28;20033;-75
2022/09/04 03:52:54;;;;;;;82.32;66.07;;;17.80;88.30;;;;;;4981134;28;20031;-75
2022/09/04 03:55:46;;;;;;;71.95;62.47;;;17.70;88.30;;;;;;4983625;28;20073;-75
2022/09/04 03:58:31;;;;;;;71.90;61.90;;;17.80;88.40;;;;;;4987033;28;20038;-75
2022/09/04 04:01:17;;;;;;;79.80;65.32;;;17.80;88.60;;;;;;4981808;28;21031;-75
2022/09/04 04:04:22;;;;;;;85.45;69.85;;;17.80;88.70;;;;;;4991067;28;20532;-75
2022/09/04 04:07:00;;;;;;;87.95;68.95;;;17.80;88.90;;;;;;4996151;28;20045;-76
2022/09/04 04:09:39;;;;;;;84.20;66.95;;;17.80;89.10;;;;;;5003047;28;20038;-75
2022/09/04 04:12:31;;;;;;;85.18;69.63;;;17.80;89.10;;;;;;5003957;28;20037;-76
2022/09/04 04:15:12;;;;;;;148.63;76.15;;;17.90;89.30;;;;;;5003820;28;20453;-76
2022/09/04 04:18:03;;;;;;;117.13;73.60;;;17.80;89.50;;;;;;5002492;28;20033;-74
2022/09/04 04:20:37;;;;;;;88.13;70.63;;;17.80;89.70;;;;;;5009239;28;20123;-76
2022/09/04 04:23:32;;;;;;;134.50;75.78;;;17.80;89.90;;;;;;5000828;28;20529;-77
2022/09/04 04:26:12;;;;;;;92.95;72.20;;;17.80;90.00;;;;;;4951575;28;20062;-79
2022/09/04 04:29:29;;;;;;;81.78;66.18;;;17.80;90.00;;;;;;4988051;28;20040;-77
2022/09/04 04:32:24;;;;;;;105.65;67.50;;;17.90;90.10;;;;;;4941810;28;20597;-77
2022/09/04 04:34:50;;;;;;;119.28;74.55;;;17.90;90.10;;;;;;4997405;28;20049;-76
2022/09/04 04:37:34;;;;;;;83.47;66.10;;;17.80;90.30;;;;;;4987384;28;20038;-78
2022/09/04 04:40:18;;;;;;;90.53;70.07;;;17.80;90.40;;;;;;4997788;28;20113;-78
2022/09/04 04:43:21;;;;;;;107.10;71.07;;;17.80;90.50;;;;;;4982810;28;20041;-77
2022/09/04 04:46:10;;;;;;;151.98;72.68;;;17.70;90.70;;;;;;4985483;28;20034;-77
2022/09/04 04:48:53;;;;;;;195.52;75.05;;;17.70;90.80;;;;;;5001728;28;20525;-78
2022/09/04 04:51:25;;;;;;;87.57;71.30;;;17.70;91.00;;;;;;4986924;28;20502;-77
2022/09/04 04:54:26;;;;;;;216.07;74.90;;;17.70;91.10;;;;;;5007403;28;20110;-79
2022/09/04 04:57:45;;;;;;;127.30;68.90;;;17.70;91.00;;;;;;4992748;28;20038;-77
2022/09/04 05:00:39;;;;;;;81.15;68.72;;;17.60;91.10;;;;;;4998054;28;20049;-77
2022/09/04 05:03:31;;;;;;;85.18;69.57;;;17.60;91.30;;;;;;4990455;28;20121;-78
2022/09/04 05:06:16;;;;;;;191.60;75.43;;;17.60;91.40;;;;;;4990422;28;20113;-77
2022/09/04 05:09:00;;;;;;;102.78;72.93;;;17.60;91.30;;;;;;4984356;28;20053;-77
2022/09/04 05:11:53;;;;;;;87.78;70.93;;;17.60;91.50;;;;;;4985128;28;20031;-76
2022/09/04 05:14:44;;;;;;;149.55;71.75;;;17.60;91.60;;;;;;4990957;28;20656;-77
2022/09/04 05:17:35;;;;;;;96.00;68.40;;;17.60;91.70;;;;;;5007937;28;20056;-76
2022/09/04 05:20:25;;;;;;;84.55;68.75;;;17.60;91.50;;;;;;4991458;28;20062;-77
2022/09/04 05:23:04;;;;;;;86.63;65.32;;;17.60;91.60;;;;;;4986892;28;20038;-74
2022/09/04 05:25:29;;;;;;;72.57;62.88;;;17.60;91.60;;;;;;4994444;28;20524;-76
2022/09/04 05:28:19;;;;;;;120.28;68.53;;;17.60;91.70;;;;;;4985235;28;20042;-78
2022/09/04 05:30:57;;;;;;;74.70;62.58;;;17.60;91.40;;;;;;4987328;28;20034;-77
2022/09/04 05:33:57;;;;;;;75.90;59.78;;;17.60;91.50;;;;;;4995488;28;20477;-76
2022/09/04 05:36:31;;;;;;;73.93;57.28;;;17.60;91.40;;;;;;4997814;28;20096;-75
2022/09/04 05:39:09;;;;;;;;;;;17.70;91.20;;;;;;4988320;28;20049;-76
2022/09/04 05:42:10;;;;;;;69.68;56.67;;;17.60;91.00;;;;;;4990537;28;19910;-75
2022/09/04 05:45:19;;;;;;;68.03;56.08;;;17.70;90.80;;;;;;4978100;28;20058;-75
2022/09/04 05:48:06;;;;;;;68.75;57.60;;;17.70;90.70;;;;;;4983431;28;20057;-76
2022/09/04 05:50:44;;;;;;;70.60;56.50;;;17.70;90.50;;;;;;4988889;28;20035;-75
2022/09/04 05:53:39;;;;;;;82.45;59.10;;;17.70;90.50;;;;;;4991056;28;20030;-75
2022/09/04 05:56:37;;;;;;;89.28;60.95;;;17.70;90.60;;;;;;4984508;28;20117;-77
2022/09/04 05:59:37;;;;;;;102.07;59.00;;;17.70;90.60;;;;;;4998154;28;20053;-76
2022/09/04 06:02:38;;;;;;;93.18;61.72;;;17.70;90.70;;;;;;4992917;28;20122;-76
2022/09/04 06:05:28;;;;;;;96.22;60.88;;;17.80;90.60;;;;;;4997554;28;20492;-76
2022/09/04 06:08:18;;;;;;;75.60;58.75;;;17.80;90.60;;;;;;4993135;28;20030;-77
2022/09/04 06:11:02;;;;;;;73.75;60.70;;;18.00;90.70;;;;;;5017188;28;20042;-76
2022/09/04 06:13:48;;;;;;;65.95;55.08;;;18.00;90.20;;;;;;4987732;28;20149;-76
2022/09/04 06:16:29;;;;;;;71.68;59.38;;;18.10;90.20;;;;;;4985759;28;20096;-75
2022/09/04 06:19:26;;;;;;;77.55;61.30;;;18.10;89.90;;;;;;4995195;28;20047;-75
2022/09/04 06:22:22;;;;;;;74.15;58.70;;;18.10;89.60;;;;;;4989602;28;20046;-74
2022/09/04 06:25:17;;;;;;;71.60;58.58;;;18.20;89.70;;;;;;4999278;28;20041;-75
2022/09/04 06:27:52;;;;;;;83.47;58.33;;;18.20;89.70;;;;;;4983974;28;20121;-76
2022/09/04 06:30:18;;;;;;;77.07;58.97;;;18.20;89.50;;;;;;4989932;28;20113;-75
2022/09/04 06:32:54;;;;;;;73.93;57.58;;;18.20;89.30;;;;;;4984698;28;20459;-74
2022/09/04 06:35:39;;;;;;;79.07;58.63;;;18.20;89.00;;;;;;4984133;28;20038;-75
2022/09/04 06:38:24;;;;;;;86.53;61.55;;;18.20;89.10;;;;;;4987618;28;20046;-74
2022/09/04 06:41:15;;;;;;;79.95;60.33;;;18.20;89.00;;;;;;4990152;28;20054;-74
2022/09/04 06:44:25;;;;;;;75.78;56.22;;;18.40;89.20;;;;;;4996912;28;20077;-76
2022/09/04 06:47:09;;;;;;;78.15;59.72;;;18.50;88.90;;;;;;4997137;28;20056;-76
2022/09/04 06:49:57;;;;;;;82.20;62.10;;;18.60;89.00;;;;;;5006232;28;20037;-76
2022/09/04 06:52:32;;;;;;;73.05;56.63;;;18.60;88.50;;;;;;5010177;28;20038;-75
2022/09/04 06:55:13;;;;;;;67.35;51.53;;;18.70;88.40;;;;;;5011550;28;20045;-75
2022/09/04 06:58:16;;;;;;;68.53;52.50;;;18.80;88.00;;;;;;5017979;28;20041;-77
2022/09/04 07:01:10;;;;;;;69.38;53.20;;;18.90;87.70;;;;;;5000961;28;20106;-76
2022/09/04 07:03:54;;;;;;;64.07;50.95;;;19.10;87.50;;;;;;5003500;28;20031;-75
2022/09/04 07:06:20;;;;;;;65.25;51.38;;;19.10;87.20;;;;;;5004956;28;20046;-74
2022/09/04 07:09:15;;;;;;;68.15;51.45;;;19.20;86.30;;;;;;5004550;28;20039;-75
2022/09/04 07:12:25;;;;;;;63.53;48.70;;;19.30;85.90;;;;;;5004983;28;20077;-76
2022/09/04 07:15:11;;;;;;;62.35;48.03;;;19.40;86.30;;;;;;4971092;28;20043;-75
2022/09/04 07:17:55;;;;;;;74.63;52.70;;;19.40;86.00;;;;;;4977111;28;20170;-77
2022/09/04 07:20:53;;;;;;;65.40;50.17;;;19.60;85.60;;;;;;4984746;28;20050;-77
2022/09/04 07:24:14;;;;;;;67.28;49.20;;;19.70;85.50;;;;;;4981578;28;20039;-77
2022/09/04 07:27:02;;;;;;;62.88;46.20;;;19.80;85.20;;;;;;4937038;28;20035;-77
2022/09/04 07:29:28;;;;;;;56.05;44.67;;;19.90;84.90;;;;;;4976224;28;20030;-76
2022/09/04 07:32:09;;;;;;;55.47;44.65;;;20.10;84.90;;;;;;4979870;28;20117;-77
2022/09/04 07:34:51;;;;;;;47.60;40.72;;;20.20;84.20;;;;;;4984268;28;20136;-77
2022/09/04 07:37:46;;;;;;;42.45;37.72;;;20.30;83.60;;;;;;4982697;28;20068;-78
2022/09/04 07:40:14;;;;;;;42.22;37.55;;;20.40;83.80;;;;;;4981802;28;20486;-78
2022/09/04 07:43:07;;;;;;;43.55;38.88;;;20.50;82.80;;;;;;4983435;28;20471;-78
2022/09/04 07:45:49;;;;;;;42.50;37.85;;;20.60;82.90;;;;;;4984133;28;20122;-77
2022/09/04 07:48:27;;;;;;;42.28;37.65;;;20.80;82.80;;;;;;4977179;28;20125;-77
2022/09/04 07:51:09;;;;;;;39.70;35.47;;;21.00;82.40;;;;;;5013043;28;20054;-76
2022/09/04 07:53:47;;;;;;;38.20;34.30;;;21.20;80.90;;;;;;4978092;28;20093;-76
2022/09/04 07:56:28;;;;;;;35.00;31.23;;;21.30;80.30;;;;;;4983444;28;20386;-75
2022/09/04 07:59:08;;;;;;;37.85;33.60;;;21.40;80.20;;;;;;5017162;28;20039;-76
2022/09/04 08:01:36;;;;;;;35.65;31.95;;;21.60;79.80;;;;;;4982811;28;20121;-76
2022/09/04 08:04:44;;;;;;;33.22;29.48;;;21.70;79.80;;;;;;4983431;28;20454;-76
2022/09/04 08:07:33;;;;;;;30.92;27.42;;;22.00;78.60;;;;;;4972292;28;20505;-77
2022/09/04 08:10:19;;;;;;;34.78;28.55;;;22.20;78.00;;;;;;4950288;28;20562;-77
2022/09/04 08:12:57;;;;;;;31.25;27.35;;;22.40;75.90;;;;;;4979337;28;20566;-76
2022/09/04 08:15:41;;;;;;;31.27;27.73;;;22.70;76.20;;;;;;4975546;28;20109;-78
2022/09/04 08:18:22;;;;;;;29.13;24.65;;;22.90;74.70;;;;;;4995642;28;20042;-76
2022/09/04 08:21:18;;;;;;;26.65;22.02;;;23.20;74.20;;;;;;4978503;28;20426;-76
2022/09/04 08:24:05;;;;;;;22.55;19.50;;;23.50;71.90;;;;;;4979426;28;20049;-78
2022/09/04 08:27:05;;;;;;;21.63;19.27;;;23.80;71.30;;;;;;4989756;28;20064;-76
2022/09/04 08:29:38;;;;;;;20.85;17.42;;;24.00;69.10;;;;;;4999910;28;20128;-78
2022/09/04 08:32:22;;;;;;;20.25;15.43;;;24.00;68.20;;;;;;4997825;28;20034;-78
2022/09/04 08:35:02;;;;;;;16.98;13.20;;;24.10;66.70;;;;;;5006869;28;20482;-78
2022/09/04 08:37:42;;;;;;;16.45;13.00;;;24.30;65.80;;;;;;5000281;28;20711;-77
2022/09/04 08:40:14;;;;;;;14.43;10.98;;;24.40;64.90;;;;;;5003809;28;20037;-76
2022/09/04 08:42:57;;;;;;;14.48;11.65;;;24.40;63.50;;;;;;5000834;28;20120;-78
2022/09/04 08:45:57;;;;;;;14.73;9.50;;;24.30;63.10;;;;;;4996973;28;20472;-77
2022/09/04 08:48:41;;;;;;;10.98;8.10;;;24.20;62.60;;;;;;5003320;28;20034;-77
2022/09/04 08:51:29;;;;;;;12.90;7.57;;;24.40;61.60;;;;;;5001732;28;20052;-78
2022/09/04 08:54:15;;;;;;;10.90;7.75;;;24.50;60.90;;;;;;5005027;28;20098;-76
2022/09/04 08:57:02;;;;;;;11.82;7.13;;;24.60;59.90;;;;;;4996990;28;20043;-77
2022/09/04 09:00:03;;;;;;;14.57;7.07;;;24.80;59.70;;;;;;5001906;28;20097;-77
2022/09/04 09:03:06;;;;;;;11.85;7.40;;;25.00;58.80;;;;;;5000824;28;20038;-77
2022/09/04 09:05:52;;;;;;;9.30;5.95;;;25.10;57.80;;;;;;4996942;28;20419;-79
2022/09/04 09:08:30;;;;;;;12.52;6.05;;;25.10;58.20;;;;;;5000500;28;20035;-78
2022/09/04 09:11:09;;;;;;;10.00;6.22;;;25.40;57.90;;;;;;5001273;28;20038;-78
2022/09/04 09:13:50;;;;;;;10.52;5.63;;;25.10;56.70;;;;;;5009554;28;20478;-77
2022/09/04 09:16:35;;;;;;;9.07;5.28;;;25.30;57.20;;;;;;4998614;28;20516;-76
2022/09/04 09:19:21;;;;;;;7.43;4.38;;;25.50;55.60;;;;;;4997490;28;20531;-77
2022/09/04 09:22:09;;;;;;;11.88;4.63;;;25.70;55.40;;;;;;4994156;28;20033;-78
2022/09/04 09:24:56;;;;;;;7.90;4.32;;;25.80;53.50;;;;;;4995752;28;20034;-78
2022/09/04 09:27:42;;;;;;;9.52;4.20;;;25.80;53.30;;;;;;5003387;28;20065;-80
2022/09/04 09:30:19;;;;;;;8.48;4.35;;;26.00;51.90;;;;;;4995384;28;20045;-79
2022/09/04 09:33:07;;;;;;;8.93;3.80;;;26.10;51.50;;;;;;5000562;28;20377;-80
2022/09/04 09:36:19;;;;;;;9.63;4.05;;;26.10;51.30;;;;;;5001206;28;20034;-79
2022/09/04 09:39:08;;;;;;;9.38;3.80;;;26.30;51.00;;;;;;4991416;28;20041;-80
2022/09/04 09:42:03;;;;;;;6.75;3.63;;;26.30;49.20;;;;;;4996427;28;20057;-77
2022/09/04 09:45:02;;;;;;;9.07;3.70;;;26.40;48.20;;;;;;4941005;28;20508;-77
2022/09/04 09:48:05;;;;;;;8.88;3.78;;;26.50;48.80;;;;;;4998979;28;20174;-75
2022/09/04 09:51:12;;;;;;;7.53;3.25;;;26.50;49.90;;;;;;5001871;28;20061;-79
2022/09/04 09:54:12;;;;;;;7.50;3.25;;;26.70;48.10;;;;;;4987143;28;20041;-78
2022/09/04 09:56:49;;;;;;;7.78;3.00;;;27.00;46.70;;;;;;5013908;28;20100;-79
2022/09/04 09:59:43;;;;;;;7.97;3.25;;;26.90;46.30;;;;;;5018163;28;20223;-79
2022/09/04 10:02:27;;;;;;;8.05;3.33;;;27.10;46.00;;;;;;4995355;28;21100;-75
2022/09/04 10:05:25;;;;;;;7.95;3.47;;;27.00;47.10;;;;;;4998550;28;20045;-78
2022/09/04 10:08:09;;;;;;;7.20;3.33;;;27.00;47.10;;;;;;5007412;28;20401;-79
2022/09/04 10:10:59;;;;;;;6.50;3.60;;;26.90;46.50;;;;;;5010909;28;20049;-76
2022/09/04 10:13:52;;;;;;;8.00;3.38;;;26.60;47.30;;;;;;5004335;28;20050;-76
2022/09/04 10:16:23;;;;;;;7.75;3.25;;;26.80;46.30;;;;;;4999576;28;20064;-79
2022/09/04 10:19:26;;;;;;;7.75;3.33;;;26.90;46.80;;;;;;5006498;28;20049;-79
2022/09/04 10:22:09;;;;;;;6.45;3.00;;;27.00;46.90;;;;;;5006270;28;20073;-79
2022/09/04 10:25:13;;;;;;;6.53;3.30;;;27.40;47.50;;;;;;5011761;28;20026;-79
2022/09/04 10:27:57;;;;;;;9.05;3.60;;;27.70;45.60;;;;;;5009011;28;20037;-77
2022/09/04 10:30:28;;;;;;;7.07;3.33;;;27.70;45.50;;;;;;5008390;28;20477;-77
2022/09/04 10:33:02;;;;;;;6.32;2.70;;;27.70;45.60;;;;;;4999462;28;20034;-78
2022/09/04 10:36:08;;;;;;;5.95;2.65;;;27.50;44.40;;;;;;5001590;28;20034;-77
2022/09/04 10:42:08;;;;;;;8.05;3.22;;;27.50;45.90;;;;;;5004842;28;20044;-80
2022/09/04 10:45:27;;;;;;;5.85;3.25;;;27.70;45.60;;;;;;5002411;28;20471;-81
2022/09/04 10:48:23;;;;;;;6.07;3.00;;;27.90;44.70;;;;;;4957485;28;20054;-80
2022/09/04 10:51:17;;;;;;;6.97;3.13;;;27.80;45.30;;;;;;5003661;28;20654;-78
2022/09/04 10:54:05;;;;;;;6.00;2.67;;;27.70;45.10;;;;;;5050782;28;20571;-76
2022/09/04 10:56:33;;;;;;;7.30;2.75;;;27.80;45.70;;;;;;5002098;28;20026;-77
2022/09/04 10:59:24;;;;;;;7.28;3.10;;;27.80;45.60;;;;;;5017468;28;20100;-78
2022/09/04 11:02:23;;;;;;;6.53;2.97;;;28.00;46.20;;;;;;5012840;28;20125;-79
2022/09/04 11:05:01;;;;;;;6.30;2.97;;;28.20;45.40;;;;;;4998606;28;20327;-78
2022/09/04 11:07:57;;;;;;;8.00;3.28;;;28.20;44.90;;;;;;4998460;28;20397;-78
2022/09/04 11:10:33;;;;;;;9.32;3.67;;;28.20;45.40;;;;;;5003132;28;20071;-76
2022/09/04 11:13:18;;;;;;;7.45;4.32;;;28.40;45.00;;;;;;4996752;28;20045;-77
2022/09/04 11:15:51;;;;;;;8.07;3.65;;;28.00;45.60;;;;;;5007820;28;20334;-78
2022/09/04 11:18:25;;;;;;;6.45;3.92;;;27.60;46.40;;;;;;4998047;28;20037;-77
2022/09/04 11:21:29;;;;;;;7.90;3.75;;;27.40;47.70;;;;;;5002070;28;20466;-79
2022/09/04 11:24:07;;;;;;;7.40;4.05;;;27.40;48.00;;;;;;5000592;28;20124;-77
2022/09/04 11:27:19;;;;;;;7.13;3.90;;;27.10;48.80;;;;;;5012841;28;20041;-79
2022/09/04 11:29:54;;;;;;;7.35;3.97;;;27.50;49.20;;;;;;5006239;28;20531;-78
2022/09/04 11:32:32;;;;;;;9.75;5.07;;;27.60;48.50;;;;;;5000457;28;20037;-77
2022/09/04 11:35:22;;;;;;;8.95;4.70;;;27.60;48.40;;;;;;4998230;28;20088;-79
2022/09/04 11:37:57;;;;;;;8.30;5.05;;;27.70;48.70;;;;;;4994547;28;20030;-78
2022/09/04 11:40:44;;;;;;;7.60;4.63;;;28.00;48.00;;;;;;4981274;28;20339;-77
2022/09/04 11:43:29;;;;;;;8.18;4.75;;;28.10;48.00;;;;;;4978787;28;20398;-78
2022/09/04 11:46:37;;;;;;;8.27;5.20;;;28.00;47.70;;;;;;4980979;28;20097;-77
2022/09/04 11:49:38;;;;;;;8.90;5.47;;;28.10;48.20;;;;;;4953982;28;20046;-77
2022/09/04 11:52:33;;;;;;;7.65;5.05;;;28.40;47.60;;;;;;4975129;28;20152;-80
2022/09/04 11:55:23;;;;;;;10.02;4.65;;;28.70;46.80;;;;;;4979408;28;20072;-76
2022/09/04 11:58:39;;;;;;;7.72;4.38;;;28.50;45.60;;;;;;5001266;28;20744;-76
2022/09/04 12:01:27;;;;;;;9.02;4.88;;;28.50;45.60;;;;;;4977768;28;20101;-78
2022/09/04 12:04:05;;;;;;;9.20;5.05;;;28.90;45.40;;;;;;5009376;28;20034;-78
2022/09/04 12:06:34;;;;;;;10.07;5.10;;;29.00;45.10;;;;;;4986823;28;20039;-76
2022/09/04 12:09:33;;;;;;;10.20;4.97;;;29.00;44.20;;;;;;4999968;28;20046;-77
2022/09/04 12:12:16;;;;;;;9.45;5.53;;;28.80;44.90;;;;;;4982596;28;20042;-78
2022/09/04 12:14:51;;;;;;;8.18;4.88;;;28.50;46.50;;;;;;4986513;28;20045;-76
2022/09/04 12:17:55;;;;;;;9.10;4.68;;;28.20;46.60;;;;;;4986308;28;20034;-77
2022/09/04 12:20:32;;;;;;;8.67;5.03;;;28.00;47.00;;;;;;5019999;28;20050;-79
2022/09/04 12:23:11;;;;;;;9.95;4.72;;;27.80;48.40;;;;;;4994664;28;20058;-76
2022/09/04 12:25:48;;;;;;;11.68;4.68;;;27.70;47.90;;;;;;4981661;28;20085;-79
2022/09/04 12:28:14;;;;;;;8.15;4.78;;;27.50;47.30;;;;;;5001633;28;20053;-77
2022/09/04 12:30:49;;;;;;;8.35;4.30;;;27.80;47.60;;;;;;5012045;28;20042;-77
2022/09/04 12:33:51;;;;;;;7.65;4.40;;;28.10;46.30;;;;;;4988353;28;20034;-77
2022/09/04 12:36:38;;;;;;;8.48;3.88;;;27.60;47.30;;;;;;4993066;28;20053;-78
2022/09/04 12:39:22;;;;;;;8.90;4.10;;;27.50;47.70;;;;;;4981122;28;20047;-76
2022/09/04 12:41:48;;;;;;;8.15;4.15;;;27.60;47.20;;;;;;5024450;28;20038;-75
2022/09/04 12:44:35;;;;;;;8.15;4.30;;;27.70;46.30;;;;;;4983600;28;20471;-75
2022/09/04 12:47:06;;;;;;;6.28;3.20;;;27.80;46.10;;;;;;4983721;28;20343;-75
2022/09/04 12:49:57;;;;;;;6.63;3.10;;;27.80;45.40;;;;;;4974868;28;20153;-76
2022/09/04 12:52:45;;;;;;;7.35;3.40;;;28.00;44.60;;;;;;5022318;28;20033;-75
2022/09/04 12:55:31;;;;;;;8.88;3.05;;;28.00;43.60;;;;;;4990225;28;20034;-75
2022/09/04 12:58:32;;;;;;;5.93;3.30;;;28.20;44.00;;;;;;4984110;28;20045;-76
2022/09/04 13:01:15;;;;;;;5.50;3.13;;;28.10;43.10;;;;;;4976385;28;20528;-75
2022/09/04 13:03:47;;;;;;;6.88;2.90;;;28.10;42.80;;;;;;4982418;28;20042;-75
2022/09/04 13:06:44;;;;;;;8.63;3.13;;;28.10;42.10;;;;;;4989998;28;20497;-76
2022/09/04 13:09:34;;;;;;;6.57;3.38;;;28.20;43.20;;;;;;4978264;28;20076;-77
2022/09/04 13:12:10;;;;;;;7.07;2.65;;;28.30;41.50;;;;;;4985449;28;20475;-76
2022/09/04 13:14:46;;;;;;;5.60;2.47;;;28.00;41.50;;;;;;4995249;28;20037;-76
2022/09/04 13:17:42;;;;;;;7.03;2.67;;;28.20;41.00;;;;;;4978915;28;20501;-77
2022/09/04 13:20:22;;;;;;;8.20;2.80;;;28.40;40.60;;;;;;4979794;28;20105;-77
2022/09/04 13:23:07;;;;;;;8.20;2.80;;;28.50;39.90;;;;;;4976909;28;20046;-76
2022/09/04 13:25:52;;;;;;;7.85;3.15;;;28.10;41.00;;;;;;4983423;28;20503;-74
2022/09/04 13:28:44;;;;;;;6.15;2.70;;;27.70;41.30;;;;;;4984549;28;20498;-75
2022/09/04 13:31:18;;;;;;;9.77;2.40;;;28.10;40.90;;;;;;5019646;28;20043;-74
2022/09/04 13:34:00;;;;;;;7.45;2.58;;;28.30;40.60;;;;;;4976353;28;20035;-74
2022/09/04 13:36:44;;;;;;;7.40;2.45;;;28.00;40.90;;;;;;4987008;28;20038;-75
2022/09/04 13:39:40;;;;;;;5.25;2.60;;;28.00;41.60;;;;;;4986716;28;20132;-75
2022/09/04 13:42:14;;;;;;;7.50;2.53;;;28.40;39.90;;;;;;5021430;28;20068;-76
2022/09/04 13:44:58;;;;;;;5.55;2.35;;;28.40;39.10;;;;;;4988083;28;20053;-75
2022/09/04 13:47:48;;;;;;;5.72;2.00;;;28.30;39.20;;;;;;4980190;28;20030;-75
2022/09/04 13:50:31;;;;;;;8.02;2.00;;;28.20;38.40;;;;;;4979184;28;20789;-76
2022/09/04 13:53:11;;;;;;;5.15;1.95;;;28.30;38.70;;;;;;4982336;28;20034;-76
2022/09/04 13:55:45;;;;;;;5.85;2.05;;;28.40;38.70;;;;;;4995984;28;20535;-75
2022/09/04 13:58:22;;;;;;;6.05;2.22;;;28.20;38.50;;;;;;4999568;28;20064;-75
2022/09/04 14:00:58;;;;;;;5.30;2.00;;;28.20;38.90;;;;;;4985674;28;20073;-75
2022/09/04 14:03:35;;;;;;;4.65;1.95;;;28.20;38.20;;;;;;4980615;28;20141;-75
2022/09/04 14:06:04;;;;;;;6.53;2.63;;;28.30;38.10;;;;;;4979477;28;20030;-78
2022/09/04 14:08:32;;;;;;;4.80;2.15;;;28.30;39.30;;;;;;5000337;28;20069;-75
2022/09/04 14:11:00;;;;;;;4.35;2.10;;;28.60;38.30;;;;;;4982005;28;20506;-76
2022/09/04 14:13:50;;;;;;;6.93;2.22;;;28.60;38.10;;;;;;4983578;28;20192;-77
2022/09/04 14:16:16;;;;;;;6.43;2.30;;;28.80;37.90;;;;;;4983072;28;20120;-76